createdAt,value
2023-04-05T00:01:13.714Z,19267.16
2023-04-05T00:03:42.919Z,19261.06
2023-04-05T00:06:13.066Z,19257.00
2023-04-05T00:08:41.786Z,19263.09
2023-04-05T00:11:09.857Z,19244.81
2023-04-05T00:13:38.239Z,19246.84
2023-04-05T00:16:08.899Z,19240.75
2023-04-05T00:18:38.466Z,19254.97
2023-04-05T00:21:07.483Z,19248.88
2023-04-05T00:23:38.595Z,19218.41
2023-04-05T00:26:06.989Z,19240.75
2023-04-05T00:28:35.382Z,19222.47
2023-04-05T00:31:03.644Z,19240.75
2023-04-05T00:33:33.220Z,19218.41
2023-04-05T00:36:11.505Z,19216.38
2023-04-05T00:38:40.562Z,19252.94
2023-04-05T00:41:09.109Z,19242.78
2023-04-05T00:43:37.247Z,19204.19
2023-04-05T00:46:06.539Z,19230.59
2023-04-05T00:48:37.075Z,19208.25
2023-04-05T00:51:09.218Z,19261.06
2023-04-05T00:53:38.299Z,19228.56
2023-04-05T00:56:07.507Z,19236.69
2023-04-05T00:58:35.621Z,19261.06
2023-04-05T01:01:13.806Z,19222.47
2023-04-05T01:03:53.689Z,19242.78
2023-04-05T01:06:54.266Z,19222.47
2023-04-05T01:09:43.702Z,19228.56
2023-04-05T01:12:18.448Z,19228.56
2023-04-05T01:14:50.064Z,19228.56
2023-04-05T01:17:22.197Z,19218.41
2023-04-05T01:19:54.308Z,19230.59
2023-04-05T01:23:25.223Z,19232.63
2023-04-05T01:26:33.575Z,19222.47
2023-04-05T01:29:35.951Z,19254.97
2023-04-05T01:32:16.166Z,19244.81
2023-04-05T01:35:03.638Z,19216.38
2023-04-05T01:37:36.192Z,19261.06
2023-04-05T01:40:06.300Z,19257.00
2023-04-05T01:42:34.634Z,19283.44
2023-04-05T01:45:04.605Z,19208.25
2023-04-05T01:47:33.149Z,19212.31
2023-04-05T01:50:01.453Z,19240.75
2023-04-05T01:52:29.573Z,19271.25
2023-04-05T01:54:57.648Z,19230.59
2023-04-05T01:57:25.822Z,19240.75
2023-04-05T01:59:53.927Z,19212.31
2023-04-05T02:02:23.475Z,19204.19
2023-04-05T02:04:51.674Z,19196.06
2023-04-05T02:07:19.767Z,19220.44
2023-04-05T02:09:47.859Z,19198.09
2023-04-05T02:12:15.931Z,19200.13
2023-04-05T02:14:43.978Z,19216.38
2023-04-05T02:17:12.653Z,19242.78
2023-04-05T02:19:42.224Z,19226.53
2023-04-05T02:22:10.544Z,19242.78
2023-04-05T02:24:38.775Z,19236.69
2023-04-05T02:27:08.300Z,19216.38
2023-04-05T02:29:36.445Z,19238.72
2023-04-05T02:32:04.796Z,19224.50
2023-04-05T02:34:33.549Z,19218.41
2023-04-05T02:37:03.109Z,19252.94
2023-04-05T02:39:31.249Z,19192.00
2023-04-05T02:41:59.882Z,19202.16
2023-04-05T02:44:29.447Z,19183.84
2023-04-05T02:46:57.579Z,19216.38
2023-04-05T02:49:25.783Z,19192.00
2023-04-05T02:51:55.737Z,19194.03
2023-04-05T02:54:25.256Z,19200.13
2023-04-05T02:56:54.591Z,19187.91
2023-04-05T02:59:23.004Z,19177.75
2023-04-05T03:01:51.154Z,19189.97
2023-04-05T03:04:19.244Z,19204.19
2023-04-05T03:06:50.966Z,19196.06
2023-04-05T03:09:19.075Z,19185.88
2023-04-05T03:11:48.532Z,19198.09
2023-04-05T03:14:16.692Z,19177.75
2023-04-05T03:16:44.814Z,19173.69
2023-04-05T03:19:12.980Z,19151.34
2023-04-05T03:21:41.155Z,19196.06
2023-04-05T03:24:09.368Z,19171.66
2023-04-05T03:26:37.503Z,19194.03
2023-04-05T03:29:07.161Z,19177.75
2023-04-05T03:31:35.305Z,19163.53
2023-04-05T03:34:03.525Z,19179.78
2023-04-05T03:36:41.748Z,19147.28
2023-04-05T03:39:10.803Z,19163.53
2023-04-05T03:41:39.190Z,19181.81
2023-04-05T03:44:09.951Z,19198.09
2023-04-05T03:46:38.950Z,19161.50
2023-04-05T03:49:07.256Z,19204.19
2023-04-05T03:51:35.500Z,19139.16
2023-04-05T03:54:03.641Z,19165.56
2023-04-05T03:56:31.813Z,19196.06
2023-04-05T03:59:00.064Z,19173.69
2023-04-05T04:01:29.602Z,19185.88
2023-04-05T04:03:57.752Z,19171.66
2023-04-05T04:06:26.668Z,19204.19
2023-04-05T04:08:54.787Z,19208.25
2023-04-05T04:11:22.878Z,19189.97
2023-04-05T04:13:51.732Z,19202.16
2023-04-05T04:16:19.880Z,19171.66
2023-04-05T04:18:49.487Z,19196.06
2023-04-05T04:21:19.117Z,19204.19
2023-04-05T04:23:47.313Z,19175.72
2023-04-05T04:26:15.406Z,19149.31
2023-04-05T04:28:44.667Z,19171.66
2023-04-05T04:31:15.589Z,19151.34
2023-04-05T04:33:43.947Z,19153.38
2023-04-05T04:36:14.349Z,19171.66
2023-04-05T04:38:46.511Z,19155.41
2023-04-05T04:41:17.650Z,19149.31
2023-04-05T04:43:45.756Z,19179.78
2023-04-05T04:46:19.042Z,19202.16
2023-04-05T04:48:48.150Z,19155.41
2023-04-05T04:51:17.587Z,19153.38
2023-04-05T04:53:45.685Z,19204.19
2023-04-05T04:56:14.018Z,19177.75
2023-04-05T04:58:42.134Z,19198.09
2023-04-05T05:01:10.722Z,19202.16
2023-04-05T05:03:39.262Z,19202.16
2023-04-05T05:06:08.289Z,19187.91
2023-04-05T05:08:38.272Z,19185.88
2023-04-05T05:11:09.053Z,19194.03
2023-04-05T05:13:37.348Z,19159.47
2023-04-05T05:16:06.844Z,19206.22
2023-04-05T05:18:34.968Z,19145.25
2023-04-05T05:21:03.025Z,19177.75
2023-04-05T05:23:31.186Z,19196.06
2023-04-05T05:26:01.310Z,19185.88
2023-04-05T05:28:29.352Z,19165.56
2023-04-05T05:30:57.506Z,19155.41
2023-04-05T05:33:26.439Z,19192.00
2023-04-05T05:35:54.521Z,19177.75
2023-04-05T05:38:23.569Z,19169.63
2023-04-05T05:40:57.957Z,19236.69
2023-04-05T05:43:27.441Z,19204.19
2023-04-05T05:45:55.604Z,19236.69
2023-04-05T05:48:23.818Z,19232.63
2023-04-05T05:50:51.984Z,19212.31
2023-04-05T05:53:20.272Z,19226.53
2023-04-05T05:55:48.433Z,19238.72
2023-04-05T05:58:16.903Z,19236.69
2023-04-05T06:00:49.891Z,19250.91
2023-04-05T06:03:19.272Z,19261.06
2023-04-05T06:05:53.080Z,19295.63
2023-04-05T06:08:21.204Z,19301.72
2023-04-05T06:10:50.418Z,19346.44
2023-04-05T06:13:18.571Z,19301.72
2023-04-05T06:15:49.200Z,19324.06
2023-04-05T06:18:17.980Z,19338.28
2023-04-05T06:20:46.111Z,19281.41
2023-04-05T06:23:14.877Z,19344.41
2023-04-05T06:25:44.991Z,19340.31
2023-04-05T06:28:13.171Z,19380.97
2023-04-05T06:30:41.630Z,19403.31
2023-04-05T06:33:11.424Z,19346.44
2023-04-05T06:35:39.610Z,19348.47
2023-04-05T06:38:07.737Z,19346.44
2023-04-05T06:40:36.100Z,19372.84
2023-04-05T06:43:04.208Z,19383.00
2023-04-05T06:45:32.454Z,19383.00
2023-04-05T06:48:00.844Z,19378.94
2023-04-05T06:50:30.432Z,19389.09
2023-04-05T06:52:58.693Z,19464.28
2023-04-05T06:55:26.992Z,19443.97
2023-04-05T06:57:55.160Z,19437.88
2023-04-05T07:00:23.843Z,19466.31
2023-04-05T07:02:52.061Z,19415.50
2023-04-05T07:05:20.246Z,19401.28
2023-04-05T07:07:49.740Z,19374.88
2023-04-05T07:10:17.906Z,19401.28
2023-04-05T07:12:47.496Z,19419.59
2023-04-05T07:15:15.966Z,19470.38
2023-04-05T07:17:44.139Z,19450.06
2023-04-05T07:20:14.237Z,19464.28
2023-04-05T07:22:42.428Z,19415.50
2023-04-05T07:25:12.582Z,19415.50
2023-04-05T07:27:40.718Z,19435.84
2023-04-05T07:30:10.296Z,19395.19
2023-04-05T07:32:38.630Z,19427.72
2023-04-05T07:35:08.490Z,19423.66
2023-04-05T07:37:37.180Z,19429.75
2023-04-05T07:40:07.408Z,19427.72
2023-04-05T07:42:36.981Z,19448.03
2023-04-05T07:45:06.294Z,19399.25
2023-04-05T07:47:35.456Z,19441.94
2023-04-05T07:50:03.967Z,19452.09
2023-04-05T07:52:32.086Z,19472.41
2023-04-05T07:55:00.286Z,19464.28
2023-04-05T07:57:28.385Z,19480.53
2023-04-05T07:59:57.848Z,19490.72
2023-04-05T08:02:26.037Z,19490.72
2023-04-05T08:04:54.235Z,19525.25
2023-04-05T08:07:22.361Z,19525.25
2023-04-05T08:09:50.443Z,19525.25
2023-04-05T08:12:18.546Z,19496.81
2023-04-05T08:14:46.693Z,19531.34
2023-04-05T08:17:17.908Z,19537.44
2023-04-05T08:19:46.088Z,19506.97
2023-04-05T08:22:16.457Z,19545.56
2023-04-05T08:24:44.622Z,19539.47
2023-04-05T08:27:13.078Z,19551.69
2023-04-05T08:29:41.593Z,19541.50
2023-04-05T08:32:09.991Z,19594.34
2023-04-05T08:34:39.692Z,19590.28
2023-04-05T08:37:07.875Z,19618.75
2023-04-05T08:39:36.561Z,19596.38
2023-04-05T08:42:12.798Z,19602.47
2023-04-05T08:44:43.044Z,19626.88
2023-04-05T08:47:18.264Z,19622.81
2023-04-05T08:49:48.844Z,19651.25
2023-04-05T08:52:17.428Z,19663.44
2023-04-05T08:54:45.586Z,19730.50
2023-04-05T08:57:15.425Z,19763.03
2023-04-05T08:59:46.815Z,19754.91
2023-04-05T09:02:19.550Z,19756.94
2023-04-05T09:04:50.084Z,19704.09
2023-04-05T09:07:20.899Z,19687.84
2023-04-05T09:09:54.590Z,19651.25
2023-04-05T09:12:24.508Z,19673.59
2023-04-05T09:14:53.734Z,19685.81
2023-04-05T09:17:23.855Z,19665.47
2023-04-05T09:19:53.307Z,19639.06
2023-04-05T09:22:24.045Z,19618.75
2023-04-05T09:24:52.167Z,19635.00
2023-04-05T09:27:21.610Z,19657.34
2023-04-05T09:29:51.390Z,19618.75
2023-04-05T09:32:21.206Z,19614.66
2023-04-05T09:34:51.728Z,19572.00
2023-04-05T09:37:23.629Z,19535.41
2023-04-05T09:40:03.773Z,19535.41
2023-04-05T09:42:45.014Z,19533.38
2023-04-05T09:45:14.089Z,19563.88
2023-04-05T09:47:42.518Z,19504.94
2023-04-05T09:50:21.338Z,19531.34
2023-04-05T09:52:52.483Z,19543.53
2023-04-05T09:55:30.039Z,19569.97
2023-04-05T09:57:58.278Z,19582.16
2023-04-05T10:00:26.593Z,19663.44
2023-04-05T10:02:57.185Z,19606.53
2023-04-05T10:05:28.345Z,19665.47
2023-04-05T10:07:58.129Z,19643.13
2023-04-05T10:10:26.707Z,19691.91
2023-04-05T10:12:55.772Z,19675.63
2023-04-05T10:15:26.725Z,19675.63
2023-04-05T10:18:05.414Z,19744.75
2023-04-05T10:20:40.520Z,19785.38
2023-04-05T10:23:17.522Z,19799.63
2023-04-05T10:26:01.806Z,19830.09
2023-04-05T10:28:33.910Z,19887.00
2023-04-05T10:31:16.837Z,19889.03
2023-04-05T10:33:57.067Z,19899.19
2023-04-05T10:36:40.473Z,19868.72
2023-04-05T10:39:17.843Z,19866.69
2023-04-05T10:41:53.769Z,19876.84
2023-04-05T10:44:26.135Z,19858.56
2023-04-05T10:46:58.038Z,19842.28
2023-04-05T10:49:38.117Z,19870.75
2023-04-05T10:52:08.107Z,19828.06
2023-04-05T10:54:38.527Z,19907.31
2023-04-05T10:57:10.238Z,19925.63
2023-04-05T10:59:45.535Z,19907.31
2023-04-05T11:02:15.334Z,19880.91
2023-04-05T11:04:43.799Z,19911.41
2023-04-05T11:07:14.833Z,19933.75
2023-04-05T11:09:57.671Z,19907.31
2023-04-05T11:13:05.677Z,19947.97
2023-04-05T11:15:35.134Z,19935.78
2023-04-05T11:18:09.037Z,19923.59
2023-04-05T11:20:46.385Z,19925.63
2023-04-05T11:23:18.656Z,19860.59
2023-04-05T11:25:53.191Z,19882.94
2023-04-05T11:28:26.468Z,19821.97
2023-04-05T11:30:58.565Z,19797.59
2023-04-05T11:33:59.993Z,19761.00
2023-04-05T11:36:33.669Z,19742.72
2023-04-05T11:39:27.875Z,19730.50
2023-04-05T11:42:03.484Z,19744.75
2023-04-05T11:44:44.497Z,19714.25
2023-04-05T11:47:13.596Z,19718.31
2023-04-05T11:49:43.055Z,19781.31
2023-04-05T11:52:17.079Z,19756.94
2023-04-05T11:54:50.054Z,19752.88
2023-04-05T11:57:23.808Z,19767.09
2023-04-05T11:59:53.687Z,19724.41
2023-04-05T12:02:22.944Z,19734.56
2023-04-05T12:04:57.239Z,19791.47
2023-04-05T12:07:29.233Z,19797.59
2023-04-05T12:10:08.352Z,19834.16
2023-04-05T12:12:40.189Z,19781.31
2023-04-05T12:15:14.087Z,19789.44
2023-04-05T12:17:45.647Z,19805.72
2023-04-05T12:20:16.101Z,19850.41
2023-04-05T12:22:46.179Z,19866.69
2023-04-05T12:25:15.592Z,19897.16
2023-04-05T12:27:45.567Z,19893.09
2023-04-05T12:30:17.107Z,19958.13
2023-04-05T12:32:51.872Z,20013.00
2023-04-05T12:35:21.904Z,20059.75
2023-04-05T12:37:52.452Z,20059.75
2023-04-05T12:40:25.110Z,20102.44
2023-04-05T12:43:01.971Z,20141.06
2023-04-05T12:45:31.224Z,20134.97
2023-04-05T12:48:01.223Z,20204.06
2023-04-05T12:50:31.200Z,20240.66
2023-04-05T12:53:02.144Z,20210.16
2023-04-05T12:55:30.960Z,20228.47
2023-04-05T12:58:03.673Z,20238.63
2023-04-05T13:00:32.708Z,20287.41
2023-04-05T13:03:01.241Z,20206.09
2023-04-05T13:05:31.237Z,20210.16
2023-04-05T13:07:59.781Z,20252.84
2023-04-05T13:10:27.960Z,20244.72
2023-04-05T13:12:56.086Z,20232.53
2023-04-05T13:15:25.807Z,20256.91
2023-04-05T13:17:55.072Z,20228.47
2023-04-05T13:20:23.436Z,20309.75
2023-04-05T13:22:52.017Z,20228.47
2023-04-05T13:25:20.331Z,20230.50
2023-04-05T13:27:48.616Z,20208.13
2023-04-05T13:30:17.234Z,20256.91
2023-04-05T13:32:46.952Z,20285.38
2023-04-05T13:35:15.125Z,20285.38
2023-04-05T13:37:43.245Z,20291.47
2023-04-05T13:40:12.145Z,20246.75
2023-04-05T13:42:40.277Z,20224.41
2023-04-05T13:45:09.714Z,20159.34
2023-04-05T13:47:37.912Z,20118.69
2023-04-05T13:50:09.154Z,20076.03
2023-04-05T13:52:37.453Z,20057.72
2023-04-05T13:55:06.421Z,19994.72
2023-04-05T13:57:34.558Z,19972.38
2023-04-05T14:00:02.907Z,19947.97
2023-04-05T14:02:31.143Z,19937.81
2023-04-05T14:04:59.277Z,19909.34
2023-04-05T14:07:29.146Z,19882.94
2023-04-05T14:09:57.540Z,19903.25
2023-04-05T14:12:25.916Z,19889.03
2023-04-05T14:14:54.246Z,19891.06
2023-04-05T14:17:22.582Z,19848.38
2023-04-05T14:19:50.875Z,19868.72
2023-04-05T14:22:21.113Z,19878.88
2023-04-05T14:24:50.736Z,19868.72
2023-04-05T14:27:22.156Z,19872.78
2023-04-05T14:29:52.453Z,19854.50
2023-04-05T14:32:20.674Z,19860.59
2023-04-05T14:34:49.298Z,19836.19
2023-04-05T14:37:18.104Z,19834.16
2023-04-05T14:39:46.978Z,19838.22
2023-04-05T14:42:16.627Z,19815.88
2023-04-05T14:44:44.917Z,19803.69
2023-04-05T14:47:13.185Z,19830.09
2023-04-05T14:49:41.430Z,19801.66
2023-04-05T14:52:09.821Z,19817.91
2023-04-05T14:54:38.055Z,19813.84
2023-04-05T14:57:06.294Z,19793.50
2023-04-05T14:59:35.991Z,19799.63
2023-04-05T15:02:04.789Z,19789.44
2023-04-05T15:04:33.152Z,19803.69
2023-04-05T15:07:01.349Z,19789.44
2023-04-05T15:09:29.588Z,19801.66
2023-04-05T15:11:57.853Z,19803.69
2023-04-05T15:14:32.080Z,19785.38
2023-04-05T15:17:02.258Z,19817.91
2023-04-05T15:19:30.969Z,19767.09
2023-04-05T15:21:59.361Z,19771.16
2023-04-05T15:24:27.649Z,19791.47
2023-04-05T15:27:01.761Z,19783.34
2023-04-05T15:29:30.154Z,19761.00
2023-04-05T15:31:58.544Z,19761.00
2023-04-05T15:34:29.577Z,19756.94
2023-04-05T15:36:58.275Z,19750.84
2023-04-05T15:39:26.976Z,19748.81
2023-04-05T15:41:57.322Z,19730.50
2023-04-05T15:44:26.622Z,19732.53
2023-04-05T15:46:54.840Z,19728.47
2023-04-05T15:49:23.021Z,19714.25
2023-04-05T15:51:52.684Z,19716.28
2023-04-05T15:54:21.032Z,19724.41
2023-04-05T15:56:49.418Z,19718.31
2023-04-05T15:59:17.714Z,19665.47
2023-04-05T16:01:46.069Z,19698.00
2023-04-05T16:04:14.525Z,19698.00
2023-04-05T16:06:42.861Z,19665.47
2023-04-05T16:09:12.493Z,19671.56
2023-04-05T16:11:40.857Z,19641.09
2023-04-05T16:14:11.350Z,19614.66
2023-04-05T16:16:50.568Z,19659.38
2023-04-05T16:19:23.449Z,19665.47
2023-04-05T16:21:52.801Z,19679.72
2023-04-05T16:24:22.552Z,19665.47
2023-04-05T16:26:51.604Z,19671.56
2023-04-05T16:29:19.874Z,19663.44
2023-04-05T16:31:48.198Z,19622.81
2023-04-05T16:34:16.864Z,19622.81
2023-04-05T16:36:45.117Z,19663.44
2023-04-05T16:39:13.366Z,19665.47
2023-04-05T16:41:43.070Z,19628.91
2023-04-05T16:44:11.467Z,19653.28
2023-04-05T16:46:40.424Z,19677.66
2023-04-05T16:49:08.645Z,19695.97
2023-04-05T16:51:37.249Z,19685.81
2023-04-05T16:54:05.830Z,19685.81
2023-04-05T16:56:34.147Z,19665.47
2023-04-05T16:59:06.740Z,19710.19
2023-04-05T17:01:35.979Z,19669.53
2023-04-05T17:04:04.510Z,19630.94
2023-04-05T17:06:33.505Z,19594.34
2023-04-05T17:09:01.989Z,19637.03
2023-04-05T17:11:30.536Z,19637.03
2023-04-05T17:13:59.463Z,19622.81
2023-04-05T17:16:29.375Z,19600.44
2023-04-05T17:18:57.652Z,19596.38
2023-04-05T17:21:26.388Z,19608.56
2023-04-05T17:23:54.696Z,19574.03
2023-04-05T17:26:24.140Z,19594.34
2023-04-05T17:28:52.297Z,19574.03
2023-04-05T17:31:20.635Z,19576.06
2023-04-05T17:33:50.274Z,19545.56
2023-04-05T17:36:18.931Z,19529.31
2023-04-05T17:38:47.145Z,19531.34
2023-04-05T17:41:15.473Z,19563.88
2023-04-05T17:43:43.751Z,19572.00
2023-04-05T17:46:14.751Z,19553.72
2023-04-05T17:48:43.110Z,19488.69
2023-04-05T17:51:12.730Z,19519.16
2023-04-05T17:53:41.071Z,19527.28
2023-04-05T17:56:09.401Z,19511.03
2023-04-05T17:58:37.634Z,19537.44
2023-04-05T18:01:06.050Z,19482.56
2023-04-05T18:03:34.380Z,19490.72
2023-04-05T18:06:02.698Z,19480.53
2023-04-05T18:08:32.335Z,19500.88
2023-04-05T18:11:01.349Z,19500.88
2023-04-05T18:13:31.023Z,19482.56
2023-04-05T18:16:00.621Z,19504.94
2023-04-05T18:18:29.225Z,19480.53
2023-04-05T18:21:01.746Z,19476.47
2023-04-05T18:23:31.601Z,19462.25
2023-04-05T18:25:59.876Z,19464.28
2023-04-05T18:28:28.458Z,19460.22
2023-04-05T18:30:56.708Z,19460.22
2023-04-05T18:33:24.954Z,19439.91
2023-04-05T18:35:53.628Z,19446.00
2023-04-05T18:38:22.517Z,19437.88
2023-04-05T18:40:59.599Z,19472.41
2023-04-05T18:43:27.868Z,19464.28
2023-04-05T18:45:56.180Z,19431.78
2023-04-05T18:48:25.170Z,19443.97
2023-04-05T18:50:53.806Z,19439.91
2023-04-05T18:53:22.260Z,19435.84
2023-04-05T18:55:55.030Z,19433.81
2023-04-05T18:58:23.269Z,19429.75
2023-04-05T19:00:51.650Z,19427.72
2023-04-05T19:03:20.065Z,19411.44
2023-04-05T19:05:51.556Z,19446.00
2023-04-05T19:08:20.641Z,19413.47
2023-04-05T19:10:48.883Z,19407.38
2023-04-05T19:13:18.773Z,19378.94
2023-04-05T19:15:47.262Z,19393.16
2023-04-05T19:18:15.557Z,19439.91
2023-04-05T19:20:43.809Z,19409.41
2023-04-05T19:23:12.023Z,19407.38
2023-04-05T19:25:40.599Z,19380.97
2023-04-05T19:28:08.856Z,19387.06
2023-04-05T19:30:41.235Z,19370.81
2023-04-05T19:33:09.625Z,19362.69
2023-04-05T19:35:37.983Z,19356.59
2023-04-05T19:38:06.578Z,19370.81
2023-04-05T19:40:34.856Z,19366.75
2023-04-05T19:43:03.214Z,19364.72
2023-04-05T19:45:32.934Z,19368.78
2023-04-05T19:48:03.931Z,19358.63
2023-04-05T19:50:56.289Z,19358.63
2023-04-05T19:53:49.052Z,19387.06
2023-04-05T19:56:21.824Z,19352.53
2023-04-05T19:58:57.191Z,19342.34
2023-04-05T20:01:35.685Z,19340.31
2023-04-05T20:04:14.141Z,19340.31
2023-04-05T20:06:43.607Z,19362.69
2023-04-05T20:09:13.495Z,19338.28
2023-04-05T20:11:43.653Z,19320.00
2023-04-05T20:14:12.106Z,19289.53
2023-04-05T20:16:40.597Z,19309.84
2023-04-05T20:19:12.274Z,19317.97
2023-04-05T20:21:41.275Z,19305.78
2023-04-05T20:24:11.250Z,19315.94
2023-04-05T20:26:39.799Z,19297.66
2023-04-05T20:29:11.886Z,19293.59
2023-04-05T20:31:40.424Z,19309.84
2023-04-05T20:34:14.730Z,19299.69
2023-04-05T20:36:49.345Z,19330.16
2023-04-05T20:39:18.596Z,19315.94
2023-04-05T20:41:47.654Z,19334.22
2023-04-05T20:44:16.247Z,19301.72
2023-04-05T20:46:44.549Z,19305.78
2023-04-05T20:49:14.476Z,19317.97
2023-04-05T20:51:43.212Z,19305.78
2023-04-05T20:54:11.794Z,19271.25
2023-04-05T20:56:40.947Z,19326.09
2023-04-05T20:59:09.541Z,19291.56
2023-04-05T21:01:38.586Z,19330.16
2023-04-05T21:04:07.197Z,19305.78
2023-04-05T21:06:37.407Z,19275.31
2023-04-05T21:09:06.505Z,19285.47
2023-04-05T21:11:34.878Z,19252.94
2023-04-05T21:14:03.304Z,19265.13
2023-04-05T21:16:31.903Z,19257.00
2023-04-05T21:19:00.137Z,19297.66
2023-04-05T21:21:28.381Z,19252.94
2023-04-05T21:23:58.006Z,19273.28
2023-04-05T21:26:26.234Z,19293.59
2023-04-05T21:28:54.502Z,19271.25
2023-04-05T21:31:22.776Z,19265.13
2023-04-05T21:33:51.026Z,19271.25
2023-04-05T21:36:19.224Z,19261.06
2023-04-05T21:38:47.482Z,19248.88
2023-04-05T21:41:17.075Z,19259.03
2023-04-05T21:43:45.283Z,19232.63
2023-04-05T21:46:13.574Z,19279.38
2023-04-05T21:48:41.854Z,19265.13
2023-04-05T21:51:10.217Z,19263.09
2023-04-05T21:53:38.438Z,19254.97
2023-04-05T21:56:06.779Z,19283.44
2023-04-05T21:58:36.373Z,19273.28
2023-04-05T22:01:04.766Z,19250.91
2023-04-05T22:03:33.087Z,19261.06
2023-04-05T22:06:02.701Z,19232.63
2023-04-05T22:08:33.956Z,19257.00
2023-04-05T22:11:02.398Z,19234.66
2023-04-05T22:13:30.640Z,19265.13
2023-04-05T22:16:00.404Z,19269.22
2023-04-05T22:18:28.996Z,19242.78
2023-04-05T22:20:57.348Z,19248.88
2023-04-05T22:23:25.770Z,19254.97
2023-04-05T22:25:54.092Z,19226.53
2023-04-05T22:28:22.936Z,19242.78
2023-04-05T22:30:51.279Z,19240.75
2023-04-05T22:33:20.917Z,19208.25
2023-04-05T22:35:49.193Z,19234.66
2023-04-05T22:38:17.465Z,19189.97
2023-04-05T22:40:46.378Z,19202.16
2023-04-05T22:43:14.746Z,19240.75
2023-04-05T22:45:43.007Z,19214.34
2023-04-05T22:48:11.385Z,19232.63
2023-04-05T22:50:41.062Z,19210.28
2023-04-05T22:53:09.373Z,19226.53
2023-04-05T22:55:39.831Z,19232.63
2023-04-05T22:58:08.582Z,19240.75
2023-04-05T23:00:37.854Z,19218.41
2023-04-05T23:03:06.198Z,19226.53
2023-04-05T23:05:36.626Z,19212.31
2023-04-05T23:08:06.574Z,19265.13
2023-04-05T23:10:34.842Z,19265.13
2023-04-05T23:13:03.103Z,19242.78
2023-04-05T23:15:31.583Z,19218.41
2023-04-05T23:17:59.952Z,19224.50
2023-04-05T23:20:28.280Z,19259.03
2023-04-05T23:22:56.766Z,19212.31
2023-04-05T23:25:26.456Z,19242.78
2023-04-05T23:27:54.778Z,19257.00
2023-04-05T23:30:23.078Z,19263.09
2023-04-05T23:32:51.407Z,19289.53
2023-04-05T23:35:19.764Z,19265.13
2023-04-05T23:37:48.014Z,19263.09
2023-04-05T23:40:16.524Z,19275.31
2023-04-05T23:42:46.220Z,19328.13
2023-04-05T23:45:14.541Z,19281.41
2023-04-05T23:47:42.969Z,19285.47
2023-04-05T23:50:11.817Z,19291.56
2023-04-05T23:52:40.098Z,19297.66
2023-04-05T23:55:09.642Z,19289.53
2023-04-05T23:57:37.924Z,19275.31
